createdAt,value
2018-11-25T00:00:29.507Z,19.12
2018-11-25T00:02:57.095Z,20.15
2018-11-25T00:05:24.698Z,17.57
2018-11-25T00:07:52.301Z,20.60
2018-11-25T00:10:19.859Z,19.10
2018-11-25T00:12:47.433Z,20.05
2018-11-25T00:15:15.030Z,20.45
2018-11-25T00:17:42.608Z,17.70
2018-11-25T00:20:11.299Z,18.67
2018-11-25T00:22:38.925Z,18.10
2018-11-25T00:25:07.996Z,19.45
2018-11-25T00:27:35.603Z,18.65
2018-11-25T00:30:03.493Z,19.00
2018-11-25T00:32:31.072Z,18.17
2018-11-25T00:34:58.643Z,18.50
2018-11-25T00:37:26.250Z,18.92
2018-11-25T00:39:53.839Z,18.25
2018-11-25T00:42:21.420Z,17.23
2018-11-25T00:44:48.986Z,16.55
2018-11-25T00:47:16.558Z,17.23
2018-11-25T00:49:44.098Z,18.17
2018-11-25T00:52:11.662Z,17.60
2018-11-25T00:54:39.215Z,19.95
2018-11-25T00:57:06.877Z,18.95
2018-11-25T00:59:34.476Z,21.27
2018-11-25T01:02:02.079Z,20.48
2018-11-25T01:04:29.698Z,23.18
2018-11-25T01:06:57.265Z,20.27
2018-11-25T01:09:24.847Z,19.50
2018-11-25T01:11:52.424Z,19.95
2018-11-25T01:14:20.006Z,19.50
2018-11-25T01:16:47.569Z,18.57
2018-11-25T01:19:15.186Z,18.57
2018-11-25T01:21:42.745Z,17.37
2018-11-25T01:24:10.284Z,18.07
2018-11-25T01:26:37.900Z,17.77
2018-11-25T01:29:05.577Z,17.32
2018-11-25T01:31:33.169Z,17.90
2018-11-25T01:34:00.747Z,18.23
2018-11-25T01:36:28.288Z,16.60
2018-11-25T01:38:55.846Z,19.12
2018-11-25T01:41:23.417Z,16.73
2018-11-25T01:43:51.011Z,18.70
2018-11-25T01:46:18.573Z,18.98
2018-11-25T01:48:46.127Z,18.00
2018-11-25T01:51:13.653Z,18.48
2018-11-25T01:53:41.200Z,17.37
2018-11-25T01:56:08.773Z,16.95
2018-11-25T01:58:36.291Z,19.48
2018-11-25T02:01:04.173Z,17.75
2018-11-25T02:03:31.778Z,16.85
2018-11-25T02:05:59.366Z,17.32
2018-11-25T02:08:26.895Z,15.45
2018-11-25T02:10:54.471Z,16.10
2018-11-25T02:13:22.065Z,16.10
2018-11-25T02:15:49.601Z,16.50
2018-11-25T02:18:17.144Z,16.97
2018-11-25T02:20:44.749Z,15.72
2018-11-25T02:23:12.308Z,17.37
2018-11-25T02:25:39.841Z,16.65
2018-11-25T02:28:07.395Z,17.90
2018-11-25T02:30:35.028Z,17.55
2018-11-25T02:33:02.605Z,18.15
2018-11-25T02:35:30.167Z,16.40
2018-11-25T02:37:57.706Z,17.80
2018-11-25T02:40:25.269Z,17.82
2018-11-25T02:42:52.890Z,18.10
2018-11-25T02:45:20.447Z,16.02
2018-11-25T02:47:47.959Z,16.00
2018-11-25T02:50:25.019Z,16.87
2018-11-25T02:52:53.329Z,16.30
2018-11-25T02:55:24.760Z,16.00
2018-11-25T02:57:52.870Z,16.32
2018-11-25T03:00:20.482Z,17.73
2018-11-25T03:02:48.117Z,18.82
2018-11-25T03:05:15.665Z,18.07
2018-11-25T03:07:43.494Z,17.87
2018-11-25T03:10:11.067Z,16.85
2018-11-25T03:12:38.627Z,17.77
2018-11-25T03:15:08.470Z,15.85
2018-11-25T03:17:36.027Z,17.20
2018-11-25T03:20:04.921Z,16.73
2018-11-25T03:22:32.933Z,16.73
2018-11-25T03:25:00.494Z,15.15
2018-11-25T03:27:28.054Z,17.27
2018-11-25T03:29:55.584Z,17.60
2018-11-25T03:32:23.129Z,17.25
2018-11-25T03:34:50.692Z,19.23
2018-11-25T03:37:18.333Z,18.27
2018-11-25T03:39:45.860Z,17.02
2018-11-25T03:42:13.417Z,18.48
2018-11-25T03:44:41.017Z,16.75
2018-11-25T03:47:08.542Z,16.82
2018-11-25T03:49:36.104Z,17.60
2018-11-25T03:52:03.654Z,15.85
2018-11-25T03:54:31.172Z,17.62
2018-11-25T03:56:58.711Z,15.28
2018-11-25T03:59:26.273Z,15.35
2018-11-25T04:01:54.158Z,15.75
2018-11-25T04:04:21.683Z,16.50
2018-11-25T04:06:49.212Z,15.55
2018-11-25T04:09:16.784Z,14.23
2018-11-25T04:11:44.284Z,15.20
2018-11-25T04:14:11.814Z,15.70
2018-11-25T04:16:39.345Z,15.65
2018-11-25T04:19:06.910Z,15.75
2018-11-25T04:21:34.452Z,13.60
2018-11-25T04:24:02.002Z,15.20
2018-11-25T04:26:29.547Z,15.10
2018-11-25T04:28:57.101Z,16.75
2018-11-25T04:31:24.606Z,15.05
2018-11-25T04:33:52.433Z,14.23
2018-11-25T04:36:19.988Z,15.30
2018-11-25T04:38:47.530Z,13.68
2018-11-25T04:41:15.066Z,14.85
2018-11-25T04:43:42.650Z,14.28
2018-11-25T04:46:10.197Z,15.50
2018-11-25T04:48:37.763Z,16.37
2018-11-25T04:51:05.500Z,17.35
2018-11-25T04:53:33.080Z,13.48
2018-11-25T04:56:00.594Z,14.87
2018-11-25T04:58:28.141Z,14.60
2018-11-25T05:00:55.670Z,14.35
2018-11-25T05:03:23.190Z,14.25
2018-11-25T05:05:50.750Z,14.58
2018-11-25T05:08:18.322Z,13.70
2018-11-25T05:10:45.892Z,15.48
2018-11-25T05:13:13.439Z,13.58
2018-11-25T05:15:41.022Z,13.43
2018-11-25T05:18:08.569Z,12.73
2018-11-25T05:20:36.118Z,12.00
2018-11-25T05:23:03.658Z,12.35
2018-11-25T05:25:31.204Z,12.90
2018-11-25T05:27:58.733Z,11.88
2018-11-25T05:30:26.308Z,12.30
2018-11-25T05:32:53.844Z,11.73
2018-11-25T05:35:21.443Z,10.80
2018-11-25T05:37:48.997Z,11.03
2018-11-25T05:40:16.670Z,13.72
2018-11-25T05:42:44.307Z,11.22
2018-11-25T05:45:15.838Z,11.33
2018-11-25T05:47:43.410Z,10.40
2018-11-25T05:50:12.094Z,12.05
2018-11-25T05:52:39.671Z,11.95
2018-11-25T05:55:08.124Z,12.40
2018-11-25T05:57:35.755Z,11.95
2018-11-25T06:00:03.638Z,10.70
2018-11-25T06:02:31.160Z,11.33
2018-11-25T06:04:58.692Z,11.88
2018-11-25T06:07:26.254Z,11.28
2018-11-25T06:09:53.776Z,10.30
2018-11-25T06:12:21.329Z,10.63
2018-11-25T06:14:48.866Z,11.90
2018-11-25T06:17:16.394Z,10.75
2018-11-25T06:19:43.927Z,9.90
2018-11-25T06:22:11.448Z,11.65
2018-11-25T06:24:39.028Z,10.25
2018-11-25T06:27:06.598Z,10.00
2018-11-25T06:29:34.172Z,10.88
2018-11-25T06:32:01.785Z,10.28
2018-11-25T06:34:29.340Z,10.78
2018-11-25T06:36:57.380Z,10.20
2018-11-25T06:39:24.922Z,10.93
2018-11-25T06:41:52.483Z,9.10
2018-11-25T06:44:20.039Z,10.32
2018-11-25T06:46:47.622Z,9.70
2018-11-25T06:49:15.203Z,10.78
2018-11-25T06:51:42.743Z,10.58
2018-11-25T06:54:10.296Z,9.40
2018-11-25T06:56:37.861Z,8.60
2018-11-25T06:59:05.954Z,9.48
2018-11-25T07:01:33.624Z,8.43
2018-11-25T07:04:01.164Z,9.08
2018-11-25T07:06:28.798Z,9.63
2018-11-25T07:08:56.329Z,10.25
2018-11-25T07:11:23.943Z,9.45
2018-11-25T07:13:51.491Z,9.50
2018-11-25T07:16:19.067Z,9.80
2018-11-25T07:18:46.617Z,9.70
2018-11-25T07:21:14.142Z,8.93
2018-11-25T07:23:41.686Z,8.38
2018-11-25T07:26:09.257Z,9.10
2018-11-25T07:28:36.815Z,9.48
2018-11-25T07:31:05.377Z,8.90
2018-11-25T07:33:32.998Z,9.73
2018-11-25T07:36:00.529Z,8.53
2018-11-25T07:38:28.085Z,9.08
2018-11-25T07:40:55.642Z,8.75
2018-11-25T07:43:23.217Z,9.70
2018-11-25T07:45:50.761Z,9.83
2018-11-25T07:48:18.334Z,9.63
2018-11-25T07:50:46.139Z,10.98
2018-11-25T07:53:13.737Z,10.03
2018-11-25T07:55:41.288Z,9.45
2018-11-25T07:58:08.840Z,10.08
2018-11-25T08:00:36.412Z,10.32
2018-11-25T08:03:04.029Z,9.00
2018-11-25T08:05:31.649Z,10.08
2018-11-25T08:07:59.236Z,11.30
2018-11-25T08:10:26.861Z,9.95
2018-11-25T08:12:54.436Z,9.35
2018-11-25T08:15:22.037Z,10.10
2018-11-25T08:17:49.720Z,10.65
2018-11-25T08:20:18.193Z,11.28
2018-11-25T08:22:45.813Z,9.90
2018-11-25T08:25:15.445Z,10.45
2018-11-25T08:27:43.008Z,10.10
2018-11-25T08:30:15.634Z,9.23
2018-11-25T08:32:43.282Z,9.75
2018-11-25T08:35:11.558Z,9.93
2018-11-25T08:37:39.122Z,11.20
2018-11-25T08:40:10.714Z,10.03
2018-11-25T08:42:38.423Z,10.88
2018-11-25T08:45:10.326Z,9.15
2018-11-25T08:47:37.902Z,9.33
2018-11-25T08:50:09.689Z,9.35
2018-11-25T08:52:37.453Z,9.83
2018-11-25T08:55:07.763Z,8.88
2018-11-25T08:57:36.072Z,10.40
2018-11-25T09:00:04.499Z,9.45
2018-11-25T09:02:32.030Z,14.07
2018-11-25T09:04:59.618Z,10.50
2018-11-25T09:07:27.173Z,10.60
2018-11-25T09:09:54.745Z,10.58
2018-11-25T09:12:22.304Z,10.25
2018-11-25T09:14:49.874Z,10.68
2018-11-25T09:17:17.480Z,11.93
2018-11-25T09:19:45.032Z,10.20
2018-11-25T09:22:12.621Z,10.72
2018-11-25T09:24:40.197Z,10.80
2018-11-25T09:27:07.766Z,10.70
2018-11-25T09:29:35.329Z,10.70
2018-11-25T09:32:02.910Z,10.85
2018-11-25T09:34:30.570Z,10.85
2018-11-25T09:36:58.197Z,10.80
2018-11-25T09:39:25.839Z,9.75
2018-11-25T09:41:53.725Z,9.48
2018-11-25T09:44:21.298Z,10.43
2018-11-25T09:46:48.897Z,10.82
2018-11-25T09:49:16.486Z,10.93
2018-11-25T09:51:44.042Z,10.98
2018-11-25T09:54:11.632Z,9.45
2018-11-25T09:56:39.240Z,10.78
2018-11-25T09:59:06.821Z,10.88
2018-11-25T10:01:34.387Z,10.72
2018-11-25T10:04:02.007Z,10.05
2018-11-25T10:06:29.668Z,11.33
2018-11-25T10:08:57.296Z,11.03
2018-11-25T10:11:25.862Z,11.25
2018-11-25T10:13:53.498Z,10.75
2018-11-25T10:16:21.096Z,8.85
2018-11-25T10:18:48.675Z,9.83
2018-11-25T10:21:16.360Z,10.10
2018-11-25T10:23:44.063Z,9.33
2018-11-25T10:26:11.686Z,9.60
2018-11-25T10:28:39.325Z,9.30
2018-11-25T10:31:06.968Z,8.83
2018-11-25T10:33:34.678Z,10.28
2018-11-25T10:36:04.653Z,9.55
2018-11-25T10:38:30.224Z,9.28
2018-11-25T10:40:58.041Z,9.30
2018-11-25T10:43:25.784Z,10.15
2018-11-25T10:45:53.398Z,10.72
2018-11-25T10:48:21.014Z,9.65
2018-11-25T10:50:51.291Z,9.68
2018-11-25T10:53:16.331Z,9.68
2018-11-25T10:55:45.558Z,10.78
2018-11-25T10:58:13.191Z,10.40
2018-11-25T11:00:46.609Z,10.15
2018-11-25T11:03:19.919Z,9.03
2018-11-25T11:05:54.023Z,10.45
2018-11-25T11:08:22.536Z,13.22
2018-11-25T11:10:50.138Z,12.30
2018-11-25T11:13:17.747Z,11.78
2018-11-25T11:15:45.375Z,9.65
2018-11-25T11:18:13.033Z,10.23
2018-11-25T11:20:40.652Z,9.30
2018-11-25T11:23:08.340Z,10.05
2018-11-25T11:25:36.008Z,10.48
2018-11-25T11:28:03.805Z,9.43
2018-11-25T11:30:31.380Z,11.55
2018-11-25T11:32:59.054Z,11.03
2018-11-25T11:35:26.708Z,12.63
2018-11-25T11:37:54.345Z,13.22
2018-11-25T11:40:21.921Z,10.95
2018-11-25T11:42:49.587Z,10.72
2018-11-25T11:45:17.256Z,14.63
2018-11-25T11:47:45.105Z,10.65
2018-11-25T11:50:15.752Z,10.15
2018-11-25T11:52:43.528Z,10.43
2018-11-25T11:55:12.207Z,10.58
2018-11-25T11:57:40.499Z,10.98
2018-11-25T12:00:25.845Z,9.43
2018-11-25T12:02:53.538Z,11.48
2018-11-25T12:05:22.005Z,10.72
2018-11-25T12:07:49.618Z,10.60
2018-11-25T12:10:17.888Z,11.45
2018-11-25T12:12:45.540Z,10.98
2018-11-25T12:15:15.441Z,11.25
2018-11-25T12:17:43.014Z,11.18
2018-11-25T12:20:10.884Z,11.33
2018-11-25T12:22:38.655Z,12.55
2018-11-25T12:25:09.039Z,11.73
2018-11-25T12:27:36.672Z,12.23
2018-11-25T12:30:06.446Z,12.45
2018-11-25T12:32:34.098Z,16.30
2018-11-25T12:35:01.734Z,11.97
2018-11-25T12:37:35.738Z,12.20
2018-11-25T12:39:57.010Z,11.83
2018-11-25T12:42:24.628Z,12.05
2018-11-25T12:44:52.346Z,20.88
2018-11-25T12:47:19.931Z,12.65
2018-11-25T12:49:47.570Z,12.43
2018-11-25T12:52:15.124Z,12.30
2018-11-25T12:54:42.757Z,13.95
2018-11-25T12:57:10.380Z,14.55
2018-11-25T12:59:38.033Z,14.25
2018-11-25T13:02:06.141Z,14.10
2018-11-25T13:04:33.999Z,15.00
2018-11-25T13:07:02.016Z,14.28
2018-11-25T13:09:30.036Z,15.90
2018-11-25T13:11:57.970Z,15.53
2018-11-25T13:14:25.659Z,15.90
2018-11-25T13:16:53.581Z,16.12
2018-11-25T13:19:21.589Z,17.20
2018-11-25T13:21:49.632Z,16.37
2018-11-25T13:24:17.494Z,14.60
2018-11-25T13:26:45.221Z,12.80
2018-11-25T13:29:13.240Z,13.20
2018-11-25T13:31:41.251Z,11.50
2018-11-25T13:34:09.211Z,11.63
2018-11-25T13:36:37.307Z,10.58
2018-11-25T13:39:08.330Z,10.08
2018-11-25T13:41:36.092Z,11.28
2018-11-25T13:44:03.805Z,11.05
2018-11-25T13:46:31.680Z,11.68
2018-11-25T13:48:59.399Z,10.88
2018-11-25T13:51:27.236Z,10.60
2018-11-25T13:53:58.706Z,11.63
2018-11-25T13:56:26.857Z,10.88
2018-11-25T13:58:54.827Z,10.63
2018-11-25T14:01:22.693Z,10.70
2018-11-25T14:03:50.611Z,12.68
2018-11-25T14:06:18.310Z,11.65
2018-11-25T14:08:49.659Z,12.47
2018-11-25T14:11:17.551Z,11.73
2018-11-25T14:13:45.327Z,12.78
2018-11-25T14:16:15.828Z,12.95
2018-11-25T14:18:43.489Z,12.45
2018-11-25T14:21:11.199Z,11.45
2018-11-25T14:23:38.840Z,12.68
2018-11-25T14:26:13.078Z,12.55
2018-11-25T14:28:40.812Z,12.13
2018-11-25T14:31:08.529Z,13.45
2018-11-25T14:33:36.201Z,12.07
2018-11-25T14:36:04.066Z,11.80
2018-11-25T14:38:31.700Z,12.93
2018-11-25T14:40:59.440Z,13.25
2018-11-25T14:43:27.086Z,13.03
2018-11-25T14:45:54.821Z,12.35
2018-11-25T14:48:22.496Z,13.10
2018-11-25T14:50:50.166Z,13.78
2018-11-25T14:53:17.760Z,13.65
2018-11-25T14:55:45.530Z,15.03
2018-11-25T14:58:13.167Z,13.60
2018-11-25T15:00:40.795Z,13.08
2018-11-25T15:03:08.431Z,12.53
2018-11-25T15:05:44.224Z,13.28
2018-11-25T15:08:13.953Z,14.23
2018-11-25T15:10:41.659Z,14.28
2018-11-25T15:13:09.321Z,13.05
2018-11-25T15:15:36.979Z,13.65
2018-11-25T15:18:05.185Z,14.30
2018-11-25T15:20:32.910Z,14.58
2018-11-25T15:23:02.117Z,13.62
2018-11-25T15:25:32.620Z,15.90
2018-11-25T15:28:00.294Z,15.18
2018-11-25T15:30:27.942Z,13.75
2018-11-25T15:32:55.578Z,17.40
2018-11-25T15:35:23.330Z,16.65
2018-11-25T15:37:51.642Z,14.63
2018-11-25T15:40:24.955Z,15.70
2018-11-25T15:42:52.558Z,15.18
2018-11-25T15:45:20.135Z,16.23
2018-11-25T15:47:49.634Z,16.45
2018-11-25T15:50:22.107Z,14.40
2018-11-25T15:52:49.789Z,14.80
2018-11-25T15:55:17.488Z,15.32
2018-11-25T15:57:45.298Z,16.32
2018-11-25T16:00:15.412Z,16.23
2018-11-25T16:02:43.133Z,15.43
2018-11-25T16:05:14.177Z,16.25
2018-11-25T16:07:42.064Z,15.78
2018-11-25T16:10:10.864Z,15.18
2018-11-25T16:12:39.073Z,16.02
2018-11-25T16:15:08.723Z,15.23
2018-11-25T16:17:36.483Z,16.90
2018-11-25T16:20:05.906Z,16.48
2018-11-25T16:22:33.555Z,17.52
2018-11-25T16:25:01.185Z,15.98
2018-11-25T16:27:28.908Z,16.45
2018-11-25T16:29:56.630Z,19.87
2018-11-25T16:32:24.352Z,18.57
2018-11-25T16:34:51.982Z,21.48
2018-11-25T16:37:20.645Z,22.13
2018-11-25T16:39:48.298Z,22.95
2018-11-25T16:42:16.783Z,22.62
2018-11-25T16:44:44.462Z,22.60
2018-11-25T16:47:12.685Z,24.85
2018-11-25T16:49:40.341Z,25.90
2018-11-25T16:52:07.936Z,26.12
2018-11-25T16:54:35.615Z,27.35
2018-11-25T16:57:03.623Z,23.83
2018-11-25T16:59:31.357Z,24.55
2018-11-25T17:01:59.063Z,26.25
2018-11-25T17:04:26.713Z,23.20
2018-11-25T17:06:54.620Z,21.75
2018-11-25T17:09:22.265Z,19.95
2018-11-25T17:11:50.674Z,21.62
2018-11-25T17:14:18.962Z,18.57
2018-11-25T17:16:46.634Z,21.52
2018-11-25T17:19:14.321Z,20.80
2018-11-25T17:21:41.942Z,20.68
2018-11-25T17:24:09.530Z,21.87
2018-11-25T17:26:37.116Z,21.70
2018-11-25T17:29:05.293Z,20.57
2018-11-25T17:31:33.219Z,19.75
2018-11-25T17:34:00.950Z,19.42
2018-11-25T17:36:28.596Z,20.25
2018-11-25T17:38:56.190Z,20.43
2018-11-25T17:41:24.009Z,21.80
2018-11-25T17:43:51.641Z,19.57
2018-11-25T17:46:19.293Z,18.50
2018-11-25T17:48:46.967Z,19.48
2018-11-25T17:51:14.681Z,19.10
2018-11-25T17:53:42.382Z,19.98
2018-11-25T17:56:10.095Z,21.50
2018-11-25T17:58:37.770Z,20.02
2018-11-25T18:01:07.108Z,19.30
2018-11-25T18:03:36.230Z,19.57
2018-11-25T18:06:04.095Z,25.75
2018-11-25T18:08:32.004Z,20.65
2018-11-25T18:10:59.639Z,18.23
2018-11-25T18:13:30.031Z,18.52
2018-11-25T18:15:59.187Z,19.80
2018-11-25T18:18:33.481Z,17.67
2018-11-25T18:21:02.551Z,19.23
2018-11-25T18:23:30.263Z,19.35
2018-11-25T18:25:57.913Z,18.12
2018-11-25T18:28:25.627Z,18.87
2018-11-25T18:30:53.284Z,17.55
2018-11-25T18:33:21.010Z,19.42
2018-11-25T18:35:49.280Z,19.23
2018-11-25T18:38:17.011Z,17.57
2018-11-25T18:40:44.681Z,18.62
2018-11-25T18:43:12.925Z,19.20
2018-11-25T18:45:41.457Z,19.87
2018-11-25T18:48:10.809Z,20.82
2018-11-25T18:50:38.637Z,21.90
2018-11-25T18:53:07.842Z,23.18
2018-11-25T18:55:34.380Z,20.72
2018-11-25T18:58:02.146Z,24.87
2018-11-25T19:02:46.000Z,24.07
2018-11-25T19:05:13.980Z,23.73
2018-11-25T19:07:41.767Z,24.05
2018-11-25T19:10:15.977Z,25.88
2018-11-25T19:12:44.525Z,24.55
2018-11-25T19:15:13.265Z,31.27
2018-11-25T19:17:41.098Z,29.75
2018-11-25T19:20:20.676Z,28.65
2018-11-25T19:22:48.805Z,25.70
2018-11-25T19:25:17.219Z,24.15
2018-11-25T19:27:46.255Z,23.85
2018-11-25T19:30:14.662Z,23.05
2018-11-25T19:32:43.702Z,21.60
2018-11-25T19:35:12.747Z,18.92
2018-11-25T19:37:41.456Z,18.05
2018-11-25T19:40:11.786Z,17.82
2018-11-25T19:42:39.782Z,17.07
2018-11-25T19:45:11.353Z,15.80
2018-11-25T19:47:39.568Z,16.12
2018-11-25T19:50:11.757Z,17.15
2018-11-25T19:52:39.770Z,13.68
2018-11-25T19:55:07.926Z,13.20
2018-11-25T19:57:36.018Z,13.10
2018-11-25T20:00:05.899Z,14.73
2018-11-25T20:02:33.980Z,12.65
2018-11-25T20:05:01.859Z,13.65
2018-11-25T20:07:29.777Z,12.70
2018-11-25T20:09:57.820Z,11.43
2018-11-25T20:12:31.305Z,12.68
2018-11-25T20:14:59.262Z,14.55
2018-11-25T20:17:27.900Z,11.70
2018-11-25T20:19:55.789Z,12.00
2018-11-25T20:22:25.574Z,13.13
2018-11-25T20:24:53.359Z,12.90
2018-11-25T20:27:27.057Z,13.08
2018-11-25T20:29:54.800Z,12.50
2018-11-25T20:32:28.255Z,12.45
2018-11-25T20:34:56.017Z,15.30
2018-11-25T20:37:27.032Z,13.55
2018-11-25T20:39:52.283Z,12.60
2018-11-25T20:42:20.288Z,13.53
2018-11-25T20:44:48.043Z,13.60
2018-11-25T20:47:16.016Z,12.33
2018-11-25T20:49:43.800Z,13.45
2018-11-25T20:54:24.637Z,13.08
2018-11-25T20:56:52.365Z,12.35
2018-11-25T20:59:20.244Z,13.43
2018-11-25T21:01:48.911Z,14.07
2018-11-25T21:04:16.684Z,14.45
2018-11-25T21:06:44.400Z,14.87
2018-11-25T21:09:12.171Z,14.93
2018-11-25T21:11:39.881Z,14.43
2018-11-25T21:14:07.647Z,14.23
2018-11-25T21:16:35.425Z,15.25
2018-11-25T21:19:03.191Z,15.20
2018-11-25T21:21:30.940Z,15.90
2018-11-25T21:23:58.743Z,14.13
2018-11-25T21:26:26.425Z,15.72
2018-11-25T21:28:54.118Z,13.83
2018-11-25T21:31:21.805Z,13.60
2018-11-25T21:33:49.576Z,15.18
2018-11-25T21:36:17.323Z,15.45
2018-11-25T21:38:44.973Z,14.90
2018-11-25T21:41:12.688Z,15.55
2018-11-25T21:43:40.342Z,16.52
2018-11-25T21:46:07.973Z,15.48
2018-11-25T21:48:35.648Z,14.73
2018-11-25T21:51:03.384Z,16.20
2018-11-25T21:53:30.999Z,15.25
2018-11-25T21:55:58.651Z,14.90
2018-11-25T21:58:28.864Z,14.85
2018-11-25T22:00:55.656Z,15.35
2018-11-25T22:03:23.357Z,14.43
2018-11-25T22:05:50.945Z,14.58
2018-11-25T22:08:18.588Z,14.30
2018-11-25T22:10:46.150Z,15.78
2018-11-25T22:13:13.796Z,15.40
2018-11-25T22:15:41.389Z,15.53
2018-11-25T22:18:08.963Z,15.40
2018-11-25T22:20:36.603Z,15.95
2018-11-25T22:23:04.283Z,14.98
2018-11-25T22:25:31.882Z,15.90
2018-11-25T22:27:59.452Z,15.40
2018-11-25T22:30:27.026Z,18.05
2018-11-25T22:32:54.713Z,15.90
2018-11-25T22:35:22.969Z,17.32
2018-11-25T22:37:50.683Z,17.15
2018-11-25T22:40:19.015Z,19.35
2018-11-25T22:42:48.322Z,17.55
2018-11-25T22:45:19.947Z,18.07
2018-11-25T22:47:47.580Z,19.77
2018-11-25T22:50:16.183Z,18.12
2018-11-25T22:52:43.886Z,18.62
2018-11-25T22:55:14.510Z,18.92
2018-11-25T22:57:42.176Z,18.80
2018-11-25T23:00:40.711Z,19.80
2018-11-25T23:03:08.335Z,18.57
2018-11-25T23:05:47.244Z,19.95
2018-11-25T23:08:14.807Z,17.80
2018-11-25T23:10:42.390Z,18.32
2018-11-25T23:13:10.014Z,19.27
2018-11-25T23:15:37.560Z,17.77
2018-11-25T23:18:05.266Z,18.30
2018-11-25T23:20:32.859Z,20.00
2018-11-25T23:23:00.459Z,17.48
2018-11-25T23:25:28.047Z,18.62
2018-11-25T23:27:55.642Z,19.00
2018-11-25T23:30:23.274Z,21.52
2018-11-25T23:32:50.824Z,17.73
2018-11-25T23:35:20.889Z,17.67
2018-11-25T23:37:48.451Z,19.50
2018-11-25T23:40:16.051Z,18.05
2018-11-25T23:42:43.628Z,17.35
2018-11-25T23:45:14.246Z,17.55
2018-11-25T23:47:41.845Z,20.10
2018-11-25T23:50:10.515Z,16.77
2018-11-25T23:52:38.200Z,17.20
2018-11-25T23:55:09.164Z,19.32
2018-11-25T23:57:36.770Z,17.80
